createdAt,value
2019-03-06T00:01:28.862Z,6.09
2019-03-06T00:03:57.975Z,6.06
2019-03-06T00:06:27.097Z,6.00
2019-03-06T00:08:56.127Z,6.00
2019-03-06T00:11:25.151Z,5.94
2019-03-06T00:13:54.192Z,5.94
2019-03-06T00:16:23.261Z,5.96
2019-03-06T00:18:52.320Z,5.95
2019-03-06T00:21:21.358Z,6.00
2019-03-06T00:23:50.466Z,5.97
2019-03-06T00:26:19.497Z,6.01
2019-03-06T00:28:50.607Z,6.00
2019-03-06T00:31:19.634Z,5.91
2019-03-06T00:33:48.739Z,5.98
2019-03-06T00:36:22.426Z,5.87
2019-03-06T00:38:51.463Z,5.74
2019-03-06T00:41:45.788Z,5.80
2019-03-06T00:44:16.898Z,5.85
2019-03-06T00:46:45.968Z,5.85
2019-03-06T00:49:15.018Z,5.84
2019-03-06T00:51:44.101Z,5.83
2019-03-06T00:54:13.218Z,5.84
2019-03-06T00:56:42.278Z,5.77
2019-03-06T00:59:11.357Z,5.74
2019-03-06T01:01:40.403Z,5.76
2019-03-06T01:04:09.457Z,5.80
2019-03-06T01:06:38.538Z,5.80
2019-03-06T01:09:08.044Z,5.81
2019-03-06T01:11:37.195Z,5.61
2019-03-06T01:14:06.299Z,5.61
2019-03-06T01:16:35.375Z,5.49
2019-03-06T01:19:04.419Z,5.49
2019-03-06T01:21:33.468Z,5.38
2019-03-06T01:24:02.518Z,5.38
2019-03-06T01:26:31.588Z,5.28
2019-03-06T01:29:00.627Z,5.27
2019-03-06T01:31:29.737Z,5.22
2019-03-06T01:34:23.501Z,5.21
2019-03-06T01:37:29.985Z,5.11
2019-03-06T01:40:18.064Z,5.08
2019-03-06T01:42:54.662Z,4.73
2019-03-06T01:45:23.691Z,4.86
2019-03-06T01:47:54.741Z,4.82
2019-03-06T01:50:23.763Z,4.84
2019-03-06T01:52:55.513Z,4.70
2019-03-06T01:55:24.488Z,4.49
2019-03-06T01:57:53.592Z,4.50
2019-03-06T02:00:22.811Z,4.47
2019-03-06T02:02:51.877Z,4.46
2019-03-06T02:05:20.865Z,4.42
2019-03-06T02:07:49.934Z,4.33
2019-03-06T02:10:18.991Z,4.24
2019-03-06T02:12:51.751Z,4.10
2019-03-06T02:15:21.223Z,4.20
2019-03-06T02:17:50.334Z,4.22
2019-03-06T02:20:19.436Z,4.16
2019-03-06T02:22:51.435Z,4.19
2019-03-06T02:25:20.465Z,4.21
2019-03-06T02:27:49.573Z,4.14
2019-03-06T02:30:20.508Z,4.20
2019-03-06T02:32:50.895Z,4.27
2019-03-06T02:35:20.007Z,4.27
2019-03-06T02:37:49.113Z,4.27
2019-03-06T02:40:20.376Z,4.22
2019-03-06T02:42:49.452Z,4.21
2019-03-06T02:45:18.500Z,4.10
2019-03-06T02:47:47.708Z,3.96
2019-03-06T02:50:16.762Z,3.97
2019-03-06T02:52:45.836Z,3.94
2019-03-06T02:55:15.118Z,4.04
2019-03-06T02:57:50.768Z,4.07
2019-03-06T03:00:47.545Z,4.01
2019-03-06T03:03:36.657Z,3.85
2019-03-06T03:06:10.036Z,3.82
2019-03-06T03:08:39.091Z,3.78
2019-03-06T03:11:08.155Z,3.59
2019-03-06T03:13:38.151Z,3.57
2019-03-06T03:16:09.513Z,3.56
2019-03-06T03:18:39.153Z,3.69
2019-03-06T03:21:08.210Z,3.76
2019-03-06T03:23:37.274Z,3.72
2019-03-06T03:26:06.323Z,3.55
2019-03-06T03:28:35.377Z,3.50
2019-03-06T03:31:04.458Z,3.27
2019-03-06T03:33:38.458Z,3.45
2019-03-06T03:36:08.570Z,3.47
2019-03-06T03:38:37.682Z,3.42
2019-03-06T03:41:06.718Z,3.36
2019-03-06T03:43:36.035Z,3.31
2019-03-06T03:46:05.318Z,3.25
2019-03-06T03:48:34.513Z,3.25
2019-03-06T03:51:03.677Z,3.19
2019-03-06T03:53:32.777Z,3.12
2019-03-06T03:56:01.860Z,2.96
2019-03-06T03:58:30.921Z,2.91
2019-03-06T04:00:59.961Z,2.94
2019-03-06T04:03:29.129Z,3.09
2019-03-06T04:05:58.172Z,3.13
2019-03-06T04:08:27.281Z,3.10
2019-03-06T04:10:56.380Z,3.13
2019-03-06T04:13:26.529Z,3.14
2019-03-06T04:15:55.597Z,3.15
2019-03-06T04:18:24.745Z,3.18
2019-03-06T04:20:53.848Z,3.09
2019-03-06T04:23:22.863Z,3.14
2019-03-06T04:25:51.960Z,2.99
2019-03-06T04:28:21.032Z,2.87
2019-03-06T04:30:53.167Z,2.82
2019-03-06T04:33:22.327Z,2.75
2019-03-06T04:35:51.363Z,2.82
2019-03-06T04:38:20.397Z,2.75
2019-03-06T04:40:51.774Z,2.63
2019-03-06T04:43:20.849Z,2.68
2019-03-06T04:45:49.974Z,2.75
2019-03-06T04:48:18.975Z,2.73
2019-03-06T04:50:48.328Z,2.56
2019-03-06T04:53:17.345Z,2.68
2019-03-06T04:55:50.436Z,2.31
2019-03-06T04:58:19.770Z,2.22
2019-03-06T05:00:48.846Z,2.24
2019-03-06T05:03:17.905Z,2.28
2019-03-06T05:05:47.109Z,2.15
2019-03-06T05:08:17.209Z,2.05
2019-03-06T05:10:48.887Z,2.31
2019-03-06T05:13:17.850Z,2.33
2019-03-06T05:15:46.918Z,2.41
2019-03-06T05:18:27.849Z,2.31
2019-03-06T05:20:57.035Z,2.39
2019-03-06T05:23:26.076Z,2.35
2019-03-06T05:25:55.206Z,2.33
2019-03-06T05:28:24.294Z,2.22
2019-03-06T05:30:53.329Z,2.16
2019-03-06T05:33:25.520Z,2.39
2019-03-06T05:36:40.458Z,2.43
2019-03-06T05:39:10.839Z,2.33
2019-03-06T05:41:40.157Z,2.43
2019-03-06T05:44:09.219Z,2.27
2019-03-06T05:46:38.358Z,2.33
2019-03-06T05:49:07.527Z,2.39
2019-03-06T05:51:36.653Z,2.34
2019-03-06T05:54:05.713Z,2.28
2019-03-06T05:56:34.773Z,2.46
2019-03-06T05:59:04.965Z,2.41
2019-03-06T06:01:34.267Z,2.33
2019-03-06T06:04:03.291Z,2.39
2019-03-06T06:06:32.341Z,2.42
2019-03-06T06:09:01.361Z,2.57
2019-03-06T06:11:30.512Z,2.49
2019-03-06T06:13:59.631Z,2.58
2019-03-06T06:16:28.689Z,2.22
2019-03-06T06:18:57.694Z,2.35
2019-03-06T06:21:54.575Z,2.49
2019-03-06T06:24:27.619Z,2.56
2019-03-06T06:26:59.036Z,2.53
2019-03-06T06:29:30.278Z,2.68
2019-03-06T06:31:59.709Z,2.66
2019-03-06T06:34:30.026Z,2.20
2019-03-06T06:36:59.176Z,2.31
2019-03-06T06:39:30.265Z,2.34
2019-03-06T06:41:59.310Z,2.40
2019-03-06T06:44:29.746Z,2.74
2019-03-06T06:46:58.791Z,2.35
2019-03-06T06:49:27.895Z,2.20
2019-03-06T06:52:28.855Z,2.11
2019-03-06T06:55:27.157Z,2.16
2019-03-06T06:58:18.674Z,2.17
2019-03-06T07:01:36.646Z,2.22
2019-03-06T07:04:47.684Z,2.53
2019-03-06T07:07:41.596Z,2.54
2019-03-06T07:10:28.154Z,2.47
2019-03-06T07:13:16.212Z,2.45
2019-03-06T07:16:19.135Z,1.57
2019-03-06T07:19:19.762Z,2.69
2019-03-06T07:22:07.911Z,2.39
2019-03-06T07:24:59.056Z,2.69
2019-03-06T07:27:47.309Z,2.64
2019-03-06T07:30:44.333Z,2.77
2019-03-06T07:33:20.029Z,3.21
2019-03-06T07:36:27.432Z,3.40
2019-03-06T07:39:00.150Z,3.25
2019-03-06T07:41:51.779Z,3.22
2019-03-06T07:44:36.310Z,3.17
2019-03-06T07:47:23.179Z,3.27
2019-03-06T07:50:14.375Z,3.29
2019-03-06T07:53:02.474Z,3.28
2019-03-06T07:55:50.810Z,3.18
2019-03-06T07:59:06.005Z,3.20
2019-03-06T08:01:41.818Z,3.55
2019-03-06T08:04:13.061Z,3.89
2019-03-06T08:06:45.026Z,4.13
2019-03-06T08:09:19.395Z,3.99
2019-03-06T08:12:11.518Z,4.19
2019-03-06T08:15:02.741Z,4.23
2019-03-06T08:17:50.713Z,4.62
2019-03-06T08:20:37.376Z,5.00
2019-03-06T08:23:31.175Z,5.40
2019-03-06T08:26:00.184Z,5.56
2019-03-06T08:28:29.219Z,5.91
2019-03-06T08:31:26.620Z,6.27
2019-03-06T08:33:55.656Z,6.49
2019-03-06T08:36:24.732Z,6.79
2019-03-06T08:38:54.972Z,6.24
2019-03-06T08:41:24.035Z,6.42
2019-03-06T08:43:53.218Z,6.50
2019-03-06T08:46:42.004Z,6.62
2019-03-06T08:49:30.155Z,6.51
2019-03-06T08:52:24.357Z,6.57
2019-03-06T08:55:17.887Z,6.83
2019-03-06T08:58:11.510Z,7.25
2019-03-06T09:01:09.939Z,7.58
2019-03-06T09:04:16.310Z,7.70
2019-03-06T09:06:51.807Z,8.05
2019-03-06T09:09:42.814Z,8.60
2019-03-06T09:12:29.842Z,9.25
2019-03-06T09:15:16.770Z,10.04
2019-03-06T09:18:10.801Z,10.06
2019-03-06T09:21:08.073Z,10.62
2019-03-06T09:23:54.643Z,10.42
2019-03-06T09:26:33.488Z,11.40
2019-03-06T09:29:20.043Z,11.71
2019-03-06T09:32:20.108Z,12.14
2019-03-06T09:35:01.701Z,13.08
2019-03-06T09:37:54.800Z,13.09
2019-03-06T09:40:51.185Z,13.13
2019-03-06T09:43:41.078Z,13.28
2019-03-06T09:46:39.607Z,13.70
2019-03-06T09:49:20.580Z,13.64
2019-03-06T09:52:02.859Z,14.16
2019-03-06T09:54:47.366Z,14.58
2019-03-06T09:57:24.853Z,14.83
2019-03-06T10:00:03.475Z,14.62
2019-03-06T10:02:43.734Z,15.03
2019-03-06T10:05:22.995Z,14.94
2019-03-06T10:08:04.317Z,14.85
2019-03-06T10:10:58.250Z,14.90
2019-03-06T10:13:52.263Z,14.81
2019-03-06T10:16:29.531Z,14.60
2019-03-06T10:19:13.475Z,14.91
2019-03-06T10:21:42.640Z,14.69
2019-03-06T10:24:11.717Z,15.21
2019-03-06T10:26:42.397Z,15.82
2019-03-06T10:29:11.449Z,15.53
2019-03-06T10:31:40.565Z,15.95
2019-03-06T10:34:09.636Z,16.60
2019-03-06T10:36:38.768Z,17.14
2019-03-06T10:39:10.336Z,16.46
2019-03-06T10:41:39.377Z,17.04
2019-03-06T10:44:11.208Z,17.26
2019-03-06T10:46:40.318Z,16.74
2019-03-06T10:49:09.406Z,15.92
2019-03-06T10:51:38.505Z,16.00
2019-03-06T10:54:07.577Z,15.84
2019-03-06T10:56:36.607Z,15.40
2019-03-06T10:59:06.081Z,15.59
2019-03-06T11:01:35.193Z,15.17
2019-03-06T11:04:22.148Z,15.75
2019-03-06T11:06:51.323Z,15.52
2019-03-06T11:09:20.443Z,16.06
2019-03-06T11:11:49.515Z,16.24
2019-03-06T11:14:21.374Z,15.78
2019-03-06T11:16:50.469Z,15.83
2019-03-06T11:19:19.832Z,16.35
2019-03-06T11:21:48.924Z,16.64
2019-03-06T11:24:18.016Z,15.69
2019-03-06T11:26:47.092Z,15.56
2019-03-06T11:29:16.166Z,15.67
2019-03-06T11:31:45.277Z,16.52
2019-03-06T11:34:16.438Z,16.85
2019-03-06T11:36:45.494Z,16.94
2019-03-06T11:39:14.646Z,16.35
2019-03-06T11:41:43.694Z,16.36
2019-03-06T11:44:14.651Z,16.47
2019-03-06T11:46:43.703Z,17.30
2019-03-06T11:49:12.794Z,16.87
2019-03-06T11:51:41.923Z,17.35
2019-03-06T11:54:11.756Z,17.27
2019-03-06T11:56:41.343Z,16.69
2019-03-06T11:59:10.510Z,16.76
2019-03-06T12:01:47.978Z,17.21
2019-03-06T12:04:11.755Z,16.89
2019-03-06T12:06:40.914Z,17.45
2019-03-06T12:09:30.532Z,17.61
2019-03-06T12:11:59.689Z,16.93
2019-03-06T12:14:31.186Z,17.54
2019-03-06T12:17:00.188Z,17.28
2019-03-06T12:19:29.254Z,16.88
2019-03-06T12:21:58.280Z,16.45
2019-03-06T12:24:30.956Z,16.20
2019-03-06T12:27:00.209Z,17.08
2019-03-06T12:29:29.353Z,17.23
2019-03-06T12:31:58.396Z,16.89
2019-03-06T12:34:30.036Z,16.98
2019-03-06T12:36:59.121Z,16.83
2019-03-06T12:39:28.736Z,16.60
2019-03-06T12:42:00.008Z,16.73
2019-03-06T12:44:29.313Z,17.23
2019-03-06T12:47:00.836Z,17.64
2019-03-06T12:49:30.568Z,17.60
2019-03-06T12:51:59.731Z,17.47
2019-03-06T12:54:28.983Z,17.24
2019-03-06T12:56:58.137Z,17.43
2019-03-06T12:59:27.404Z,17.73
2019-03-06T13:01:56.539Z,17.42
2019-03-06T13:04:25.864Z,17.57
2019-03-06T13:06:55.516Z,17.79
2019-03-06T13:09:24.638Z,17.39
2019-03-06T13:11:53.889Z,17.21
2019-03-06T13:14:23.357Z,16.83
2019-03-06T13:16:52.732Z,17.27
2019-03-06T13:19:21.926Z,16.99
2019-03-06T13:21:50.947Z,16.88
2019-03-06T13:24:19.980Z,17.39
2019-03-06T13:26:49.060Z,17.10
2019-03-06T13:29:18.382Z,17.20
2019-03-06T13:31:47.486Z,17.13
2019-03-06T13:34:50.806Z,17.14
2019-03-06T13:37:18.367Z,16.83
2019-03-06T13:39:47.487Z,16.76
2019-03-06T13:42:16.507Z,16.54
2019-03-06T13:44:45.559Z,16.86
2019-03-06T13:47:14.662Z,16.83
2019-03-06T13:49:43.935Z,17.03
2019-03-06T13:52:13.284Z,16.48
2019-03-06T13:54:42.353Z,16.49
2019-03-06T13:57:11.995Z,15.94
2019-03-06T13:59:41.078Z,15.79
2019-03-06T14:02:10.258Z,15.95
2019-03-06T14:04:42.521Z,15.86
2019-03-06T14:07:15.030Z,15.92
2019-03-06T14:09:44.916Z,15.96
2019-03-06T14:12:13.984Z,15.90
2019-03-06T14:14:42.995Z,15.54
2019-03-06T14:17:12.097Z,15.68
2019-03-06T14:19:42.910Z,15.84
2019-03-06T14:22:11.987Z,15.74
2019-03-06T14:24:41.017Z,15.98
2019-03-06T14:27:10.142Z,16.18
2019-03-06T14:29:40.719Z,16.01
2019-03-06T14:32:14.601Z,15.92
2019-03-06T14:34:40.544Z,16.01
2019-03-06T14:37:09.711Z,15.99
2019-03-06T14:39:38.720Z,15.80
2019-03-06T14:42:08.029Z,16.05
2019-03-06T14:44:37.098Z,15.45
2019-03-06T14:47:08.192Z,15.53
2019-03-06T14:49:37.562Z,15.48
2019-03-06T14:52:07.901Z,15.50
2019-03-06T14:54:36.928Z,15.24
2019-03-06T14:57:06.088Z,15.17
2019-03-06T14:59:37.732Z,15.17
2019-03-06T15:02:06.804Z,15.08
2019-03-06T15:04:35.852Z,14.67
2019-03-06T15:07:06.258Z,14.45
2019-03-06T15:09:35.418Z,14.38
2019-03-06T15:12:04.442Z,14.31
2019-03-06T15:14:36.897Z,14.00
2019-03-06T15:17:08.187Z,14.00
2019-03-06T15:19:39.176Z,13.97
2019-03-06T15:22:10.311Z,13.81
2019-03-06T15:24:41.608Z,13.63
2019-03-06T15:27:11.687Z,13.60
2019-03-06T15:29:41.039Z,13.56
2019-03-06T15:32:10.096Z,13.30
2019-03-06T15:34:39.133Z,13.34
2019-03-06T15:37:08.231Z,13.35
2019-03-06T15:39:45.638Z,13.37
2019-03-06T15:42:12.902Z,13.33
2019-03-06T15:44:42.019Z,13.10
2019-03-06T15:47:12.367Z,12.93
2019-03-06T15:49:41.441Z,12.89
2019-03-06T15:52:10.939Z,12.90
2019-03-06T15:54:39.994Z,12.61
2019-03-06T15:57:11.508Z,12.57
2019-03-06T15:59:40.665Z,12.47
2019-03-06T16:02:09.722Z,12.46
2019-03-06T16:04:38.848Z,12.45
2019-03-06T16:07:07.862Z,12.41
2019-03-06T16:09:37.482Z,12.39
2019-03-06T16:12:06.523Z,12.29
2019-03-06T16:14:35.640Z,12.17
2019-03-06T16:17:04.675Z,12.25
2019-03-06T16:19:34.188Z,12.37
2019-03-06T16:22:03.366Z,12.35
2019-03-06T16:24:34.005Z,12.24
2019-03-06T16:27:03.010Z,12.33
2019-03-06T16:29:32.140Z,12.17
2019-03-06T16:32:01.203Z,12.15
2019-03-06T16:34:32.256Z,12.04
2019-03-06T16:37:01.294Z,12.00
2019-03-06T16:39:30.368Z,12.09
2019-03-06T16:41:59.378Z,11.88
2019-03-06T16:44:28.489Z,11.80
2019-03-06T16:47:06.171Z,11.77
2019-03-06T16:49:28.337Z,11.70
2019-03-06T16:51:57.630Z,11.64
2019-03-06T16:54:26.657Z,11.60
2019-03-06T16:56:55.775Z,11.56
2019-03-06T16:59:24.865Z,11.51
2019-03-06T17:01:53.899Z,11.46
2019-03-06T17:04:22.973Z,11.34
2019-03-06T17:06:52.010Z,11.41
2019-03-06T17:09:21.069Z,11.28
2019-03-06T17:11:50.093Z,11.37
2019-03-06T17:14:19.126Z,11.31
2019-03-06T17:16:48.222Z,11.32
2019-03-06T17:19:17.250Z,11.25
2019-03-06T17:21:46.395Z,11.24
2019-03-06T17:24:15.391Z,11.11
2019-03-06T17:26:45.787Z,11.06
2019-03-06T17:29:15.152Z,11.07
2019-03-06T17:31:44.228Z,10.95
2019-03-06T17:34:13.630Z,10.87
2019-03-06T17:36:42.652Z,10.80
2019-03-06T17:39:11.854Z,10.61
2019-03-06T17:41:40.944Z,10.48
2019-03-06T17:44:11.168Z,10.50
2019-03-06T17:46:40.365Z,10.51
2019-03-06T17:49:09.546Z,10.62
2019-03-06T17:51:38.692Z,10.57
2019-03-06T17:54:07.787Z,10.51
2019-03-06T17:56:36.863Z,10.45
2019-03-06T17:59:06.032Z,10.42
2019-03-06T18:01:35.151Z,10.39
2019-03-06T18:04:25.531Z,10.37
2019-03-06T18:06:56.036Z,10.29
2019-03-06T18:09:25.064Z,10.24
2019-03-06T18:11:54.169Z,10.14
2019-03-06T18:14:23.239Z,10.18
2019-03-06T18:16:52.337Z,10.18
2019-03-06T18:19:23.671Z,10.16
2019-03-06T18:21:52.711Z,10.06
2019-03-06T18:24:21.824Z,10.08
2019-03-06T18:26:50.930Z,10.07
2019-03-06T18:29:19.956Z,10.10
2019-03-06T18:31:49.339Z,10.01
2019-03-06T18:34:18.455Z,9.97
2019-03-06T18:36:47.524Z,10.00
2019-03-06T18:39:22.920Z,10.01
2019-03-06T18:41:53.281Z,10.00
2019-03-06T18:44:22.319Z,10.03
2019-03-06T18:46:51.465Z,10.11
2019-03-06T18:49:20.716Z,9.89
2019-03-06T18:51:50.009Z,9.88
2019-03-06T18:54:21.345Z,9.96
2019-03-06T18:56:50.699Z,9.85
2019-03-06T18:59:19.806Z,9.81
2019-03-06T19:01:48.899Z,9.85
2019-03-06T19:04:18.022Z,9.70
2019-03-06T19:06:47.081Z,9.70
2019-03-06T19:09:16.145Z,9.69
2019-03-06T19:11:45.363Z,9.75
2019-03-06T19:14:14.429Z,7.45
2019-03-06T19:16:43.482Z,9.73
2019-03-06T19:19:12.560Z,9.73
2019-03-06T19:21:41.616Z,9.65
2019-03-06T19:24:10.709Z,9.60
2019-03-06T19:26:40.016Z,9.69
2019-03-06T19:29:09.091Z,9.71
2019-03-06T19:31:38.144Z,9.67
2019-03-06T19:34:07.217Z,9.64
2019-03-06T19:36:36.284Z,9.71
2019-03-06T19:39:06.639Z,9.63
2019-03-06T19:41:35.891Z,9.65
2019-03-06T19:44:05.024Z,8.79
2019-03-06T19:46:34.370Z,9.68
2019-03-06T19:49:03.590Z,9.65
2019-03-06T19:51:32.661Z,9.67
2019-03-06T19:54:01.800Z,8.80
2019-03-06T19:56:31.125Z,9.66
2019-03-06T19:59:00.266Z,9.52
2019-03-06T20:01:29.382Z,9.61
2019-03-06T20:03:58.470Z,9.39
2019-03-06T20:06:27.560Z,9.39
2019-03-06T20:08:56.630Z,9.24
2019-03-06T20:11:25.726Z,9.26
2019-03-06T20:13:57.911Z,9.28
2019-03-06T20:16:26.970Z,9.28
2019-03-06T20:18:56.116Z,9.24
2019-03-06T20:21:25.318Z,9.29
2019-03-06T20:23:54.366Z,9.32
2019-03-06T20:26:23.357Z,9.30
2019-03-06T20:28:52.423Z,9.22
2019-03-06T20:31:21.439Z,9.21
2019-03-06T20:33:50.538Z,9.34
2019-03-06T20:36:19.561Z,9.24
2019-03-06T20:38:48.604Z,9.25
2019-03-06T20:41:17.684Z,9.24
2019-03-06T20:43:46.838Z,9.30
2019-03-06T20:46:15.967Z,9.14
2019-03-06T20:48:45.054Z,9.09
2019-03-06T20:51:14.099Z,8.94
2019-03-06T20:53:43.178Z,9.07
2019-03-06T20:56:12.365Z,9.14
2019-03-06T20:58:41.544Z,9.18
2019-03-06T21:01:10.620Z,9.16
2019-03-06T21:03:39.651Z,9.28
2019-03-06T21:06:08.996Z,9.21
2019-03-06T21:08:38.058Z,9.21
2019-03-06T21:11:07.116Z,9.34
2019-03-06T21:13:36.138Z,9.30
2019-03-06T21:16:05.199Z,9.24
2019-03-06T21:18:34.251Z,9.17
2019-03-06T21:21:03.327Z,9.31
2019-03-06T21:23:32.393Z,9.29
2019-03-06T21:26:01.465Z,9.28
2019-03-06T21:28:30.536Z,9.26
2019-03-06T21:30:59.596Z,9.22
2019-03-06T21:33:28.634Z,9.17
2019-03-06T21:35:57.948Z,9.18
2019-03-06T21:38:27.016Z,9.18
2019-03-06T21:40:56.158Z,9.30
2019-03-06T21:43:25.169Z,9.37
2019-03-06T21:45:54.298Z,9.25
2019-03-06T21:48:23.355Z,9.23
2019-03-06T21:50:52.698Z,9.17
2019-03-06T21:53:21.770Z,9.14
2019-03-06T21:55:50.821Z,9.19
2019-03-06T21:58:19.905Z,9.26
2019-03-06T22:00:48.965Z,9.18
2019-03-06T22:03:18.031Z,9.28
2019-03-06T22:05:48.105Z,9.29
2019-03-06T22:08:17.197Z,9.23
2019-03-06T22:10:46.273Z,9.25
2019-03-06T22:13:15.356Z,9.32
2019-03-06T22:15:44.406Z,9.17
2019-03-06T22:18:13.515Z,9.17
2019-03-06T22:20:42.857Z,9.24
2019-03-06T22:23:11.904Z,9.31
2019-03-06T22:25:42.156Z,9.29
2019-03-06T22:28:11.272Z,9.27
2019-03-06T22:30:40.313Z,9.24
2019-03-06T22:33:09.371Z,9.24
2019-03-06T22:35:38.683Z,9.25
2019-03-06T22:38:07.773Z,9.17
2019-03-06T22:40:36.856Z,9.26
2019-03-06T22:43:05.980Z,9.27
2019-03-06T22:45:34.989Z,9.33
2019-03-06T22:48:05.271Z,9.31
2019-03-06T22:50:34.468Z,9.21
2019-03-06T22:53:03.567Z,9.19
2019-03-06T22:55:32.595Z,9.16
2019-03-06T22:58:02.739Z,9.21
2019-03-06T23:00:51.751Z,9.19
2019-03-06T23:03:21.301Z,9.20
2019-03-06T23:05:53.216Z,9.21
2019-03-06T23:08:23.695Z,9.17
2019-03-06T23:10:52.916Z,9.15
2019-03-06T23:13:22.105Z,9.20
2019-03-06T23:15:51.147Z,9.21
2019-03-06T23:18:20.235Z,9.14
2019-03-06T23:20:49.317Z,9.21
2019-03-06T23:23:18.348Z,9.20
2019-03-06T23:25:47.382Z,9.20
2019-03-06T23:28:16.570Z,9.21
2019-03-06T23:30:45.611Z,9.07
2019-03-06T23:33:14.681Z,9.10
2019-03-06T23:35:43.673Z,9.06
2019-03-06T23:38:15.041Z,9.00
2019-03-06T23:40:44.121Z,8.82
2019-03-06T23:43:14.170Z,8.95
2019-03-06T23:45:43.169Z,9.01
2019-03-06T23:48:12.264Z,8.84
2019-03-06T23:50:41.263Z,8.84
2019-03-06T23:53:12.028Z,8.93
2019-03-06T23:55:41.248Z,9.01
2019-03-06T23:58:10.349Z,8.98
